createdAt,value
2023-04-22T00:00:54.758Z,27.85
2023-04-22T00:03:24.711Z,28.15
2023-04-22T00:05:51.487Z,29.20
2023-04-22T00:08:18.002Z,25.13
2023-04-22T00:10:44.416Z,25.45
2023-04-22T00:13:10.823Z,24.38
2023-04-22T00:15:37.526Z,22.85
2023-04-22T00:18:04.213Z,24.52
2023-04-22T00:20:32.831Z,21.20
2023-04-22T00:22:59.259Z,24.80
2023-04-22T00:25:25.914Z,23.08
2023-04-22T00:27:52.280Z,20.23
2023-04-22T00:30:18.650Z,27.40
2023-04-22T00:32:45.055Z,24.25
2023-04-22T00:35:11.530Z,25.98
2023-04-22T00:37:37.922Z,22.25
2023-04-22T00:40:04.668Z,21.27
2023-04-22T00:42:31.349Z,21.90
2023-04-22T00:44:57.894Z,17.70
2023-04-22T00:47:26.963Z,14.60
2023-04-22T00:49:54.354Z,14.30
2023-04-22T00:52:20.752Z,15.00
2023-04-22T00:54:48.094Z,18.88
2023-04-22T00:57:14.642Z,20.38
2023-04-22T00:59:42.163Z,19.40
2023-04-22T01:02:08.797Z,20.65
2023-04-22T01:04:35.609Z,143.55
2023-04-22T01:07:02.070Z,31.05
2023-04-22T01:09:28.862Z,19.65
2023-04-22T01:11:56.175Z,14.02
2023-04-22T01:14:22.683Z,15.82
2023-04-22T01:16:50.444Z,18.75
2023-04-22T01:19:16.882Z,12.30
2023-04-22T01:21:45.000Z,13.70
2023-04-22T01:24:11.390Z,12.52
2023-04-22T01:26:38.038Z,13.75
2023-04-22T01:29:05.500Z,15.98
2023-04-22T01:31:32.028Z,16.75
2023-04-22T01:33:58.844Z,13.63
2023-04-22T01:36:25.617Z,13.98
2023-04-22T01:38:52.015Z,12.60
2023-04-22T01:41:18.684Z,11.25
2023-04-22T01:43:45.405Z,10.48
2023-04-22T01:46:11.788Z,11.32
2023-04-22T01:48:38.389Z,10.50
2023-04-22T01:51:05.357Z,10.57
2023-04-22T01:53:31.839Z,10.23
2023-04-22T01:55:58.299Z,13.05
2023-04-22T01:58:24.672Z,11.93
2023-04-22T02:00:51.068Z,13.90
2023-04-22T02:03:17.542Z,14.38
2023-04-22T02:05:44.002Z,15.77
2023-04-22T02:08:10.759Z,13.35
2023-04-22T02:10:37.252Z,14.10
2023-04-22T02:13:03.624Z,13.13
2023-04-22T02:15:30.471Z,13.65
2023-04-22T02:17:56.862Z,11.43
2023-04-22T02:20:23.304Z,12.73
2023-04-22T02:22:50.637Z,14.43
2023-04-22T02:25:17.044Z,13.93
2023-04-22T02:27:43.420Z,15.10
2023-04-22T02:30:09.997Z,26.95
2023-04-22T02:32:38.674Z,23.15
2023-04-22T02:35:05.418Z,29.95
2023-04-22T02:37:31.801Z,21.05
2023-04-22T02:39:58.168Z,25.15
2023-04-22T02:42:24.585Z,19.05
2023-04-22T02:44:50.946Z,23.27
2023-04-22T02:47:17.317Z,20.27
2023-04-22T02:49:43.681Z,15.13
2023-04-22T02:52:10.104Z,15.45
2023-04-22T02:54:36.474Z,15.95
2023-04-22T02:57:02.978Z,21.67
2023-04-22T02:59:30.790Z,22.55
2023-04-22T03:01:57.231Z,21.42
2023-04-22T03:04:25.733Z,27.50
2023-04-22T03:06:52.507Z,23.50
2023-04-22T03:09:18.916Z,20.63
2023-04-22T03:11:45.462Z,20.23
2023-04-22T03:14:11.835Z,21.30
2023-04-22T03:16:38.264Z,20.05
2023-04-22T03:19:04.722Z,20.55
2023-04-22T03:21:32.279Z,23.15
2023-04-22T03:23:59.019Z,20.55
2023-04-22T03:26:25.374Z,22.15
2023-04-22T03:28:51.757Z,21.25
2023-04-22T03:31:18.137Z,26.52
2023-04-22T03:33:44.507Z,22.90
2023-04-22T03:36:10.887Z,20.88
2023-04-22T03:38:37.255Z,21.73
2023-04-22T03:41:03.628Z,22.60
2023-04-22T03:43:30.021Z,21.38
2023-04-22T03:45:56.494Z,23.95
2023-04-22T03:48:22.908Z,23.17
2023-04-22T03:50:49.335Z,27.17
2023-04-22T03:53:15.719Z,23.65
2023-04-22T03:55:42.113Z,24.83
2023-04-22T03:58:08.488Z,23.58
2023-04-22T04:00:34.868Z,22.52
2023-04-22T04:03:01.389Z,23.67
2023-04-22T04:05:28.015Z,23.08
2023-04-22T04:07:54.579Z,24.15
2023-04-22T04:10:20.945Z,23.80
2023-04-22T04:12:47.344Z,24.85
2023-04-22T04:15:13.730Z,26.50
2023-04-22T04:17:40.182Z,33.63
2023-04-22T04:20:07.312Z,28.65
2023-04-22T04:22:34.955Z,24.52
2023-04-22T04:25:01.706Z,32.58
2023-04-22T04:27:28.065Z,33.90
2023-04-22T04:29:55.778Z,30.73
2023-04-22T04:32:22.600Z,33.67
2023-04-22T04:34:49.032Z,31.15
2023-04-22T04:37:16.723Z,33.33
2023-04-22T04:39:43.466Z,34.42
2023-04-22T04:42:09.860Z,55.70
2023-04-22T04:44:36.385Z,45.35
2023-04-22T04:47:04.052Z,43.38
2023-04-22T04:49:30.627Z,47.75
2023-04-22T04:52:01.754Z,40.63
2023-04-22T04:54:28.334Z,31.97
2023-04-22T04:56:54.747Z,29.60
2023-04-22T04:59:21.105Z,31.58
2023-04-22T05:01:47.565Z,32.38
2023-04-22T05:04:14.315Z,30.77
2023-04-22T05:06:40.875Z,37.50
2023-04-22T05:09:07.822Z,35.78
2023-04-22T05:11:34.245Z,37.45
2023-04-22T05:14:00.832Z,35.17
2023-04-22T05:16:27.283Z,36.97
2023-04-22T05:18:53.724Z,34.05
2023-04-22T05:21:20.357Z,30.17
2023-04-22T05:23:46.747Z,27.67
2023-04-22T05:26:13.103Z,29.48
2023-04-22T05:28:39.479Z,30.02
2023-04-22T05:31:06.796Z,32.75
2023-04-22T05:33:33.197Z,34.88
2023-04-22T05:35:59.584Z,36.20
2023-04-22T05:38:25.990Z,30.02
2023-04-22T05:40:52.367Z,33.78
2023-04-22T05:43:18.819Z,35.38
2023-04-22T05:45:45.232Z,34.33
2023-04-22T05:48:11.685Z,35.70
2023-04-22T05:50:38.138Z,31.30
2023-04-22T05:53:04.522Z,32.50
2023-04-22T05:55:31.029Z,31.83
2023-04-22T05:57:57.415Z,30.17
2023-04-22T06:00:23.775Z,30.10
2023-04-22T06:02:50.332Z,26.45
2023-04-22T06:05:16.893Z,32.22
2023-04-22T06:07:43.394Z,31.55
2023-04-22T06:10:10.230Z,32.30
2023-04-22T06:12:36.629Z,28.80
2023-04-22T06:15:03.968Z,29.95
2023-04-22T06:17:30.446Z,27.00
2023-04-22T06:19:56.863Z,27.02
2023-04-22T06:22:23.249Z,27.38
2023-04-22T06:24:49.610Z,27.90
2023-04-22T06:27:16.000Z,30.33
2023-04-22T06:29:43.450Z,29.42
2023-04-22T06:32:09.843Z,29.08
2023-04-22T06:34:38.508Z,32.78
2023-04-22T06:37:04.933Z,31.02
2023-04-22T06:39:31.315Z,33.28
2023-04-22T06:41:57.720Z,31.80
2023-04-22T06:44:25.392Z,33.05
2023-04-22T06:46:51.829Z,32.38
2023-04-22T06:49:18.269Z,29.52
2023-04-22T06:51:44.639Z,30.38
2023-04-22T06:54:11.025Z,26.58
2023-04-22T06:56:37.444Z,26.17
2023-04-22T06:59:03.847Z,26.88
2023-04-22T07:01:30.268Z,25.27
2023-04-22T07:03:56.816Z,23.58
2023-04-22T07:06:23.339Z,23.55
2023-04-22T07:08:49.804Z,28.67
2023-04-22T07:11:16.227Z,28.65
2023-04-22T07:13:42.605Z,21.92
2023-04-22T07:16:09.032Z,18.65
2023-04-22T07:18:36.016Z,18.85
2023-04-22T07:21:02.444Z,19.70
2023-04-22T07:23:28.846Z,21.70
2023-04-22T07:25:55.301Z,18.92
2023-04-22T07:28:21.717Z,20.70
2023-04-22T07:30:48.536Z,18.77
2023-04-22T07:33:14.908Z,22.70
2023-04-22T07:35:41.297Z,24.92
2023-04-22T07:38:09.283Z,20.70
2023-04-22T07:40:36.264Z,20.42
2023-04-22T07:43:02.684Z,21.10
2023-04-22T07:45:29.080Z,18.13
2023-04-22T07:47:55.737Z,16.67
2023-04-22T07:50:22.364Z,14.82
2023-04-22T07:52:48.749Z,17.13
2023-04-22T07:55:15.227Z,9.35
2023-04-22T07:57:41.677Z,9.80
2023-04-22T08:00:10.869Z,10.32
2023-04-22T08:02:37.416Z,11.13
2023-04-22T08:05:04.169Z,8.55
2023-04-22T08:07:33.555Z,6.88
2023-04-22T08:10:00.512Z,6.47
2023-04-22T08:12:26.927Z,6.63
2023-04-22T08:14:54.058Z,6.15
2023-04-22T08:17:21.915Z,4.80
2023-04-22T08:19:49.027Z,4.35
2023-04-22T08:22:16.095Z,4.22
2023-04-22T08:24:42.478Z,4.40
2023-04-22T08:27:08.872Z,4.32
2023-04-22T08:29:35.367Z,4.30
2023-04-22T08:32:03.024Z,3.45
2023-04-22T08:34:29.446Z,2.80
2023-04-22T08:36:55.837Z,2.50
2023-04-22T08:39:22.218Z,3.67
2023-04-22T08:41:50.465Z,2.53
2023-04-22T08:44:16.833Z,2.28
2023-04-22T08:46:47.004Z,3.95
2023-04-22T08:49:16.738Z,3.17
2023-04-22T08:51:44.341Z,2.72
2023-04-22T08:54:11.809Z,3.20
2023-04-22T08:56:42.355Z,2.03
2023-04-22T08:59:10.345Z,2.28
2023-04-22T09:01:38.387Z,3.72
2023-04-22T09:04:05.187Z,1.92
2023-04-22T09:06:32.798Z,2.80
2023-04-22T09:09:00.561Z,2.22
2023-04-22T09:11:28.298Z,4.28
2023-04-22T09:13:54.769Z,2.42
2023-04-22T09:16:21.257Z,3.67
2023-04-22T09:18:47.702Z,1.80
2023-04-22T09:21:14.150Z,4.85
2023-04-22T09:24:02.392Z,2.63
2023-04-22T09:26:28.786Z,2.45
2023-04-22T09:28:58.281Z,2.38
2023-04-22T09:31:25.539Z,2.00
2023-04-22T09:33:53.417Z,6.13
2023-04-22T09:36:28.253Z,2.80
2023-04-22T09:38:59.413Z,2.58
2023-04-22T09:41:29.273Z,2.97
2023-04-22T09:44:00.672Z,4.80
2023-04-22T09:46:28.717Z,2.28
2023-04-22T09:48:56.151Z,4.43
2023-04-22T09:51:22.841Z,2.10
2023-04-22T09:53:59.557Z,2.13
2023-04-22T09:56:49.280Z,2.95
2023-04-22T09:59:22.817Z,1.95
2023-04-22T10:01:50.613Z,2.95
2023-04-22T10:04:17.972Z,2.55
2023-04-22T10:06:44.386Z,3.20
2023-04-22T10:09:12.196Z,3.30
2023-04-22T10:11:40.524Z,3.03
2023-04-22T10:14:10.115Z,2.63
2023-04-22T10:16:38.573Z,2.92
2023-04-22T10:19:06.579Z,3.28
2023-04-22T10:21:33.524Z,2.05
2023-04-22T10:24:00.833Z,2.13
2023-04-22T10:26:43.663Z,2.20
2023-04-22T10:29:16.684Z,2.20
2023-04-22T10:31:44.909Z,1.90
2023-04-22T10:34:12.959Z,2.45
2023-04-22T10:37:01.947Z,2.17
2023-04-22T10:39:29.137Z,3.83
2023-04-22T10:42:11.073Z,2.85
2023-04-22T10:44:54.234Z,2.53
2023-04-22T10:47:29.114Z,3.25
2023-04-22T10:50:13.788Z,2.65
2023-04-22T10:52:41.583Z,4.28
2023-04-22T10:55:09.576Z,3.15
2023-04-22T10:57:41.653Z,5.00
2023-04-22T11:00:35.380Z,3.20
2023-04-22T11:03:05.226Z,4.97
2023-04-22T11:05:32.559Z,1.88
2023-04-22T11:08:04.165Z,1.73
2023-04-22T11:10:32.637Z,2.95
2023-04-22T11:13:01.306Z,3.55
2023-04-22T11:15:29.613Z,2.17
2023-04-22T11:17:56.363Z,3.25
2023-04-22T11:20:24.140Z,1.85
2023-04-22T11:22:55.430Z,2.33
2023-04-22T11:25:23.353Z,2.65
2023-04-22T11:27:49.811Z,1.83
2023-04-22T11:30:21.075Z,3.67
2023-04-22T11:32:52.293Z,2.00
2023-04-22T11:35:24.018Z,3.20
2023-04-22T11:38:01.210Z,4.53
2023-04-22T11:40:38.854Z,2.83
2023-04-22T11:43:08.279Z,3.10
2023-04-22T11:45:36.326Z,2.33
2023-04-22T11:48:05.155Z,3.72
2023-04-22T11:50:34.304Z,1.92
2023-04-22T11:53:12.521Z,3.25
2023-04-22T11:55:39.869Z,2.17
2023-04-22T11:58:09.628Z,4.60
2023-04-22T12:00:49.506Z,1.70
2023-04-22T12:03:16.950Z,2.45
2023-04-22T12:05:45.114Z,3.00
2023-04-22T12:08:13.126Z,2.30
2023-04-22T12:10:46.618Z,2.50
2023-04-22T12:13:30.936Z,4.47
2023-04-22T12:15:59.259Z,4.15
2023-04-22T12:18:36.210Z,3.10
2023-04-22T12:21:13.180Z,2.40
2023-04-22T12:23:52.113Z,3.50
2023-04-22T12:26:20.791Z,2.30
2023-04-22T12:28:48.359Z,2.13
2023-04-22T12:31:15.408Z,4.05
2023-04-22T12:33:42.497Z,5.82
2023-04-22T12:36:09.409Z,3.75
2023-04-22T12:38:36.511Z,3.33
2023-04-22T12:41:04.246Z,2.05
2023-04-22T12:43:32.197Z,5.03
2023-04-22T12:45:58.996Z,4.40
2023-04-22T12:48:25.441Z,4.78
2023-04-22T12:50:51.819Z,3.35
2023-04-22T12:53:18.238Z,2.83
2023-04-22T12:55:46.100Z,5.85
2023-04-22T12:58:12.706Z,3.35
2023-04-22T13:00:39.075Z,3.72
2023-04-22T13:03:05.699Z,4.88
2023-04-22T13:05:32.404Z,2.75
2023-04-22T13:08:06.386Z,2.80
2023-04-22T13:10:33.605Z,3.28
2023-04-22T13:13:13.542Z,2.65
2023-04-22T13:15:43.133Z,4.32
2023-04-22T13:18:09.530Z,3.60
2023-04-22T13:20:36.052Z,6.40
2023-04-22T13:23:02.539Z,5.43
2023-04-22T13:25:28.939Z,3.03
2023-04-22T13:27:55.319Z,3.70
2023-04-22T13:30:21.692Z,3.47
2023-04-22T13:32:48.126Z,4.28
2023-04-22T13:35:14.592Z,2.75
2023-04-22T13:37:40.996Z,3.00
2023-04-22T13:40:08.248Z,3.60
2023-04-22T13:42:34.725Z,3.40
2023-04-22T13:45:01.149Z,2.45
2023-04-22T13:47:27.577Z,3.78
2023-04-22T13:49:53.982Z,2.28
2023-04-22T13:52:20.661Z,3.95
2023-04-22T13:54:47.076Z,2.63
2023-04-22T13:57:13.494Z,4.65
2023-04-22T13:59:41.693Z,2.67
2023-04-22T14:02:08.374Z,3.60
2023-04-22T14:04:34.850Z,4.10
2023-04-22T14:07:01.846Z,3.38
2023-04-22T14:09:28.224Z,4.13
2023-04-22T14:11:54.894Z,3.55
2023-04-22T14:14:21.283Z,4.10
2023-04-22T14:16:48.487Z,3.58
2023-04-22T14:19:14.960Z,3.22
2023-04-22T14:21:41.753Z,4.63
2023-04-22T14:24:08.140Z,4.50
2023-04-22T14:26:34.612Z,2.60
2023-04-22T14:29:01.049Z,2.42
2023-04-22T14:31:27.555Z,2.53
2023-04-22T14:33:54.084Z,2.78
2023-04-22T14:36:20.477Z,5.32
2023-04-22T14:38:46.982Z,3.22
2023-04-22T14:41:13.463Z,3.03
2023-04-22T14:43:39.916Z,3.15
2023-04-22T14:46:06.412Z,5.35
2023-04-22T14:48:35.264Z,3.85
2023-04-22T14:51:01.913Z,2.50
2023-04-22T14:53:28.403Z,3.05
2023-04-22T14:55:55.749Z,6.07
2023-04-22T14:58:22.768Z,4.72
2023-04-22T15:00:49.963Z,4.18
2023-04-22T15:03:16.531Z,4.43
2023-04-22T15:05:43.365Z,4.70
2023-04-22T15:08:09.783Z,5.95
2023-04-22T15:10:36.370Z,6.20
2023-04-22T15:13:02.789Z,4.43
2023-04-22T15:15:29.199Z,6.93
2023-04-22T15:17:55.643Z,6.40
2023-04-22T15:20:22.049Z,6.90
2023-04-22T15:22:48.819Z,5.32
2023-04-22T15:25:17.437Z,5.03
2023-04-22T15:27:44.528Z,5.78
2023-04-22T15:30:11.171Z,6.00
2023-04-22T15:32:39.039Z,4.63
2023-04-22T15:35:07.309Z,5.25
2023-04-22T15:37:33.748Z,5.63
2023-04-22T15:40:00.265Z,6.40
2023-04-22T15:42:26.686Z,4.57
2023-04-22T15:44:53.065Z,5.00
2023-04-22T15:47:19.568Z,6.47
2023-04-22T15:49:46.015Z,5.75
2023-04-22T15:52:12.461Z,6.78
2023-04-22T15:54:38.868Z,7.50
2023-04-22T15:57:05.284Z,4.95
2023-04-22T15:59:31.678Z,5.68
2023-04-22T16:01:58.135Z,6.82
2023-04-22T16:04:24.989Z,5.18
2023-04-22T16:06:51.673Z,5.07
2023-04-22T16:09:18.177Z,7.78
2023-04-22T16:11:44.568Z,7.40
2023-04-22T16:14:12.194Z,7.25
2023-04-22T16:16:39.883Z,7.80
2023-04-22T16:19:06.493Z,9.68
2023-04-22T16:21:32.852Z,8.15
2023-04-22T16:23:59.249Z,9.73
2023-04-22T16:26:25.688Z,7.38
2023-04-22T16:28:52.111Z,7.75
2023-04-22T16:31:22.676Z,6.75
2023-04-22T16:33:50.298Z,7.13
2023-04-22T16:36:16.720Z,9.98
2023-04-22T16:38:43.273Z,6.88
2023-04-22T16:41:11.392Z,9.32
2023-04-22T16:43:40.725Z,10.43
2023-04-22T16:46:07.631Z,10.05
2023-04-22T16:48:34.186Z,6.55
2023-04-22T16:51:00.618Z,9.20
2023-04-22T16:53:27.075Z,10.30
2023-04-22T16:55:53.441Z,10.10
2023-04-22T16:58:19.785Z,50.13
2023-04-22T17:00:47.754Z,22.45
2023-04-22T17:03:14.428Z,46.17
2023-04-22T17:05:40.975Z,11.80
2023-04-22T17:08:07.710Z,7.32
2023-04-22T17:10:34.734Z,7.47
2023-04-22T17:13:01.285Z,6.07
2023-04-22T17:15:27.681Z,7.47
2023-04-22T17:17:54.091Z,8.02
2023-04-22T17:20:20.547Z,6.13
2023-04-22T17:22:46.991Z,5.53
2023-04-22T17:25:13.364Z,6.18
2023-04-22T17:27:39.753Z,7.85
2023-04-22T17:30:06.776Z,6.68
2023-04-22T17:32:33.199Z,7.60
2023-04-22T17:34:59.679Z,6.13
2023-04-22T17:37:26.065Z,12.52
2023-04-22T17:39:52.679Z,7.13
2023-04-22T17:42:19.195Z,150.15
2023-04-22T17:44:45.698Z,12.75
2023-04-22T17:47:12.136Z,8.95
2023-04-22T17:49:38.937Z,9.20
2023-04-22T17:52:05.608Z,13.07
2023-04-22T17:54:32.022Z,28.08
2023-04-22T17:56:58.377Z,5.65
2023-04-22T17:59:24.772Z,4.63
2023-04-22T18:01:51.448Z,3.53
2023-04-22T18:04:18.056Z,3.40
2023-04-22T18:06:44.596Z,3.80
2023-04-22T18:09:11.404Z,12.38
2023-04-22T18:11:37.795Z,5.15
2023-04-22T18:14:04.205Z,4.85
2023-04-22T18:16:30.657Z,8.60
2023-04-22T18:18:58.946Z,8.60
2023-04-22T18:21:25.532Z,22.23
2023-04-22T18:23:53.060Z,18.20
2023-04-22T18:26:19.452Z,7.90
2023-04-22T18:28:45.870Z,6.85
2023-04-22T18:31:12.308Z,6.32
2023-04-22T18:33:38.687Z,8.30
2023-04-22T18:36:05.435Z,6.28
2023-04-22T18:38:31.887Z,7.57
2023-04-22T18:40:58.606Z,10.25
2023-04-22T18:43:24.992Z,8.27
2023-04-22T18:45:51.440Z,7.72
2023-04-22T18:48:19.122Z,13.35
2023-04-22T18:50:45.680Z,9.48
2023-04-22T18:53:12.161Z,6.95
2023-04-22T18:55:38.706Z,6.40
2023-04-22T18:58:05.172Z,7.80
2023-04-22T19:00:31.644Z,6.40
2023-04-22T19:02:58.158Z,7.93
2023-04-22T19:05:24.874Z,6.57
2023-04-22T19:07:51.852Z,26.50
2023-04-22T19:10:18.258Z,18.73
2023-04-22T19:12:44.622Z,12.57
2023-04-22T19:15:11.279Z,9.85
2023-04-22T19:17:38.547Z,8.35
2023-04-22T19:20:06.153Z,9.93
2023-04-22T19:22:32.559Z,8.52
2023-04-22T19:24:58.979Z,8.55
2023-04-22T19:27:25.678Z,8.32
2023-04-22T19:29:53.304Z,8.52
2023-04-22T19:32:20.991Z,6.97
2023-04-22T19:34:47.692Z,7.10
2023-04-22T19:37:14.166Z,12.52
2023-04-22T19:39:40.697Z,14.20
2023-04-22T19:42:07.231Z,10.32
2023-04-22T19:44:33.613Z,12.30
2023-04-22T19:47:00.833Z,10.18
2023-04-22T19:49:27.523Z,9.98
2023-04-22T19:51:54.595Z,9.27
2023-04-22T19:54:21.805Z,9.80
2023-04-22T19:56:48.977Z,10.80
2023-04-22T19:59:15.987Z,9.18
2023-04-22T20:01:42.575Z,9.95
2023-04-22T20:04:09.280Z,11.02
2023-04-22T20:06:35.929Z,10.73
2023-04-22T20:09:05.138Z,11.52
2023-04-22T20:11:32.336Z,11.80
2023-04-22T20:13:59.180Z,11.20
2023-04-22T20:16:26.868Z,14.20
2023-04-22T20:18:53.596Z,52.63
2023-04-22T20:21:20.061Z,17.80
2023-04-22T20:23:47.832Z,20.83
2023-04-22T20:26:18.584Z,24.92
2023-04-22T20:28:47.669Z,42.60
2023-04-22T20:31:16.497Z,22.17
2023-04-22T20:33:42.924Z,13.77
2023-04-22T20:36:09.814Z,13.75
2023-04-22T20:38:39.686Z,13.85
2023-04-22T20:41:06.999Z,10.27
2023-04-22T20:43:33.515Z,6.97
2023-04-22T20:45:59.994Z,6.78
2023-04-22T20:48:26.565Z,8.88
2023-04-22T20:50:52.925Z,10.48
2023-04-22T20:53:19.422Z,11.00
2023-04-22T20:55:45.992Z,13.77
2023-04-22T20:58:12.604Z,15.18
2023-04-22T21:00:38.942Z,13.68
2023-04-22T21:03:08.554Z,12.48
2023-04-22T21:05:42.250Z,15.38
2023-04-22T21:08:23.071Z,13.82
2023-04-22T21:10:51.047Z,16.95
2023-04-22T21:13:18.017Z,16.65
2023-04-22T21:15:55.667Z,14.80
2023-04-22T21:18:24.441Z,17.52
2023-04-22T21:20:51.696Z,16.90
2023-04-22T21:23:19.993Z,18.02
2023-04-22T21:25:48.476Z,19.88
2023-04-22T21:28:15.857Z,22.00
2023-04-22T21:30:42.473Z,20.25
2023-04-22T21:33:08.841Z,21.65
2023-04-22T21:35:35.546Z,23.60
2023-04-22T21:38:02.753Z,26.85
2023-04-22T21:40:29.146Z,27.42
2023-04-22T21:42:55.629Z,29.08
2023-04-22T21:45:21.997Z,36.38
2023-04-22T21:47:48.404Z,34.90
2023-04-22T21:50:14.824Z,36.05
2023-04-22T21:52:41.211Z,33.45
2023-04-22T21:55:07.942Z,37.35
2023-04-22T21:57:34.364Z,41.00
2023-04-22T22:00:01.074Z,41.30
2023-04-22T22:02:27.598Z,43.42
2023-04-22T22:04:54.157Z,48.15
2023-04-22T22:07:21.972Z,42.92
2023-04-22T22:09:48.343Z,49.70
2023-04-22T22:12:15.495Z,50.90
2023-04-22T22:14:43.381Z,52.20
2023-04-22T22:17:09.829Z,58.25
2023-04-22T22:19:36.329Z,62.53
2023-04-22T22:22:02.736Z,67.78
2023-04-22T22:24:29.121Z,71.47
2023-04-22T22:26:57.181Z,70.45
2023-04-22T22:29:23.549Z,72.50
2023-04-22T22:31:49.969Z,76.70
2023-04-22T22:34:16.350Z,76.95
2023-04-22T22:36:42.725Z,74.72
2023-04-22T22:39:11.783Z,77.60
2023-04-22T22:41:38.190Z,76.03
2023-04-22T22:44:04.584Z,78.22
2023-04-22T22:46:31.004Z,79.10
2023-04-22T22:48:59.095Z,84.47
2023-04-22T22:51:25.503Z,76.30
2023-04-22T22:53:51.961Z,74.93
2023-04-22T22:56:20.740Z,74.80
2023-04-22T22:58:48.148Z,76.07
2023-04-22T23:01:14.772Z,76.53
2023-04-22T23:03:41.415Z,68.10
2023-04-22T23:06:07.920Z,75.18
2023-04-22T23:08:34.290Z,70.63
2023-04-22T23:11:01.921Z,70.88
2023-04-22T23:13:28.299Z,74.97
2023-04-22T23:15:54.722Z,66.90
2023-04-22T23:18:21.240Z,72.93
2023-04-22T23:20:47.950Z,68.25
2023-04-22T23:23:18.313Z,76.45
2023-04-22T23:25:46.425Z,76.95
2023-04-22T23:28:13.169Z,69.82
2023-04-22T23:30:40.106Z,66.32
2023-04-22T23:33:07.597Z,70.25
2023-04-22T23:35:36.277Z,68.47
2023-04-22T23:38:03.988Z,71.95
2023-04-22T23:40:30.354Z,70.65
2023-04-22T23:42:56.713Z,71.18
2023-04-22T23:45:23.168Z,74.32
2023-04-22T23:47:49.810Z,69.28
2023-04-22T23:50:18.892Z,72.38
2023-04-22T23:52:45.324Z,73.65
2023-04-22T23:55:13.806Z,76.75
2023-04-22T23:57:40.452Z,77.75
